Airfield :
LOGIN :

Register | Disclaimer

   EN    FR    IT 

 










Legend :    VFR   Marginal VFR   IFR   Intensive IFR   Very Intensive IFR
Visi :
Ceiling :
>= 8 km
>= 3000ft
5 to 8 km
1000 to 3000 ft
1500m to 5 km
500 to 1000 ft
800 to 1500m
200 to 500 ft
< 800m
< 200 ft
Symbols :   Thunderstorms  Fog  Heavy snow  Heavy precipitations  Wind > 20 kt
SIGMETs :     Misc.  Thunderstorms  Icing  Turbulence  Mountain Waves  Volcanic Ashes






- Airport Elevation : 119 ft
- IATA code : WAT


EIWF - Waterford

CURRENT METAR :
  • 121330Z 33016KT 300V010 9999 FEW040 09/02 Q1004

EXPIRED METARs :
  • 121300Z 34015G30KT 300V010 CAVOK 09/02 Q1004
  • 121230Z 33015KT 300V360 CAVOK 08/03 Q1004
  • 121200Z 33016KT CAVOK 08/02 Q1004
  • 121130Z 33014KT 300V360 CAVOK 08/02 Q1004
  • 121100Z 32014G26KT 290V360 CAVOK 06/01 Q1004

TAF TAF EIWF
Valid from the 12 at 12:00 until the 12 at 21:00 UTC


121100Z 1212/1221 30012KT 9999 SCT040
TEMPO 1212/1216 31015G26KT
ATIS : +353 51 877 000



MET'MAP, your aeronautical weather chart ! - Copyright ORBIFLY December 2007 - Disclaimer

ORBIFLY MET'MAP TEAM :

Programming & Development : Alexandra Zaïnal
Concept & Development : Baudouin d'Aumeries
Co-Development & Prog : Marc-Olivier Méhu
Technical & hardware support : Manuel Goepfert

Contact : metmap@orbifly.com




SOURCES & CREDITS :

   NOAA